Time;durP1;ratioP1;P1;durP2;ratioP2;P2;SDS_P1;SDS_P2;PMS_P1;PMS_P2;Temp;Humidity;BMP_temperature;BMP_pressure;BME280_temperature;BME280_humidity;BME280_pressure;Samples;Min_cycle;Max_cycle;Signal;HPM_P1;HPM_P2
2022/04/28 00:01:40;;;;;;;;;;;14.10;99.90;;;;;;5055533;28;19910;-79
2022/04/28 00:04:05;;;;;;;;;;;13.90;99.90;;;;;;5073509;28;19912;-80
2022/04/28 00:06:31;;;;;;;;;;;13.90;99.90;;;;;;5055545;28;19954;-79
2022/04/28 00:08:56;;;;;;;;;;;14.00;99.90;;;;;;5059659;28;19951;-80
2022/04/28 00:11:22;;;;;;;;;;;13.80;99.90;;;;;;5077647;28;19940;-82
2022/04/28 00:13:47;;;;;;;;;;;13.80;99.90;;;;;;5077543;28;20326;-78
2022/04/28 00:16:13;;;;;;;;;;;13.70;99.90;;;;;;5077619;28;19912;-81
2022/04/28 00:18:38;;;;;;;;;;;13.70;99.90;;;;;;5077601;28;20352;-81
2022/04/28 00:21:04;;;;;;;;;;;13.70;99.90;;;;;;5077399;28;19904;-80
2022/04/28 00:23:30;;;;;;;;;;;13.70;99.90;;;;;;5077358;28;20380;-79
2022/04/28 00:25:55;;;;;;;;;;;13.80;99.90;;;;;;5077300;28;20095;-80
2022/04/28 00:28:21;;;;;;;;;;;13.80;99.90;;;;;;5077235;28;19905;-82
2022/04/28 00:30:46;;;;;;;;;;;13.80;99.90;;;;;;5059208;28;19952;-82
2022/04/28 00:33:12;;;;;;;;;;;13.80;99.90;;;;;;5077098;28;19908;-80
2022/04/28 00:35:38;;;;;;;;;;;13.80;99.90;;;;;;5077288;28;20357;-82
2022/04/28 00:38:04;;;;;;;;;;;13.60;99.90;;;;;;5076518;28;19917;-80
2022/04/28 00:40:30;;;;;;;;;;;13.60;99.90;;;;;;5076976;28;19904;-81
2022/04/28 00:43:18;;;;;;;;;;;13.60;99.90;;;;;;5059005;28;19911;-79
2022/04/28 00:45:41;;;;;;;;;;;13.80;99.90;;;;;;5076689;28;19927;-79
2022/04/28 00:50:51;;;;;;;;;;;14.00;99.90;;;;;;5077023;28;19974;-83
2022/04/28 00:53:17;;;;;;;;;;;13.90;99.90;;;;;;5076951;28;19904;-79
2022/04/28 00:55:43;;;;;;;;;;;13.90;99.90;;;;;;5058790;28;19970;-79
2022/04/28 00:58:10;;;;;;;;;;;13.90;99.90;;;;;;5058626;28;19912;-79
2022/04/28 01:00:37;;;;;;;;;;;14.20;99.90;;;;;;5076891;28;19905;-80
2022/04/28 01:03:02;;;;;;;;;;;14.00;99.90;;;;;;5076587;28;20249;-80
2022/04/28 01:05:28;;;;;;;;;;;14.10;99.90;;;;;;5076916;28;19912;-81
2022/04/28 01:07:54;;;;;;;;;;;14.00;99.90;;;;;;5076772;28;19904;-81
2022/04/28 01:10:19;;;;;;;;;;;13.80;99.90;;;;;;5076394;28;20357;-81
2022/04/28 01:12:46;;;;;;;;;;;13.90;99.90;;;;;;5076621;28;20005;-81
2022/04/28 01:15:12;;;;;;;;;;;13.90;99.90;;;;;;5076390;28;20265;-80
2022/04/28 01:17:37;;;;;;;;;;;14.10;99.90;;;;;;5076250;28;19908;-81
2022/04/28 01:20:03;;;;;;;;;;;14.00;99.90;;;;;;5057143;28;19911;-81
2022/04/28 01:22:29;;;;;;;;;;;14.10;99.90;;;;;;5058312;28;19911;-80
2022/04/28 01:24:54;;;;;;;;;;;13.90;99.90;;;;;;5076264;28;19908;-81
2022/04/28 01:27:20;;;;;;;;;;;14.00;99.90;;;;;;5076143;28;20257;-80
2022/04/28 01:29:46;;;;;;;;;;;14.10;99.90;;;;;;5076088;28;19943;-79
2022/04/28 01:32:11;;;;;;;;;;;14.00;99.90;;;;;;5076049;28;19915;-81
2022/04/28 01:34:37;;;;;;;;;;;14.00;99.90;;;;;;5076019;28;19904;-81
2022/04/28 01:37:03;;;;;;;;;;;13.80;99.90;;;;;;5075698;28;19917;-79
2022/04/28 01:39:28;;;;;;;;;;;13.90;99.90;;;;;;5075954;28;19912;-81
2022/04/28 01:41:54;;;;;;;;;;;14.00;99.90;;;;;;5057920;28;19954;-81
2022/04/28 01:44:19;;;;;;;;;;;14.00;99.90;;;;;;5075833;28;19908;-80
2022/04/28 01:46:45;;;;;;;;;;;14.10;99.90;;;;;;5057781;28;19927;-80
2022/04/28 01:49:11;;;;;;;;;;;14.20;99.90;;;;;;5075871;28;19905;-80
2022/04/28 01:57:05;;;;;;;;;;;14.30;99.90;;;;;;5075441;28;19957;-81
2022/04/28 01:59:30;;;;;;;;;;;14.20;99.90;;;;;;5075601;28;20283;-80
2022/04/28 02:01:56;;;;;;;;;;;14.20;99.90;;;;;;5075532;28;19904;-78
2022/04/28 02:04:21;;;;;;;;;;;14.30;99.90;;;;;;5075510;28;20028;-80
2022/04/28 02:06:47;;;;;;;;;;;14.20;99.90;;;;;;5075461;28;19908;-79
2022/04/28 02:09:13;;;;;;;;;;;14.10;99.90;;;;;;5075382;28;20361;-78
2022/04/28 02:11:38;;;;;;;;;;;14.00;99.90;;;;;;5057293;28;19911;-81
2022/04/28 02:14:04;;;;;;;;;;;14.00;99.90;;;;;;5057284;28;20364;-81
2022/04/28 02:16:29;;;;;;;;;;;14.00;99.90;;;;;;5075120;28;19908;-81
2022/04/28 02:18:55;;;;;;;;;;;14.10;99.90;;;;;;5075214;28;19910;-80
2022/04/28 02:21:21;;;;;;;;;;;14.20;99.90;;;;;;5057210;28;20334;-79
2022/04/28 02:23:46;;;;;;;;;;;14.10;99.90;;;;;;5075208;28;19911;-82
2022/04/28 02:26:12;;;;;;;;;;;14.10;99.90;;;;;;5075038;28;20283;-79
2022/04/28 02:28:38;;;;;;;;;;;14.00;99.90;;;;;;5074966;28;19905;-78
2022/04/28 02:31:04;;;;;;;;;;;14.10;99.90;;;;;;5074651;28;19904;-79
2022/04/28 02:33:30;;;;;;;;;;;14.20;99.90;;;;;;5074907;28;20280;-79
2022/04/28 02:35:56;;;;;;;;;;;14.20;99.90;;;;;;5074711;28;19904;-79
2022/04/28 02:38:21;;;;;;;;;;;14.10;99.90;;;;;;5074333;28;19923;-79
2022/04/28 02:40:47;;;;;;;;;;;13.90;99.90;;;;;;5074726;28;19908;-82
2022/04/28 02:43:12;;;;;;;;;;;14.10;99.90;;;;;;5074651;28;20284;-81
2022/04/28 02:45:38;;;;;;;;;;;14.00;99.90;;;;;;5074781;28;19905;-79
2022/04/28 02:48:05;;;;;;;;;;;14.00;99.90;;;;;;5074678;28;20371;-82
2022/04/28 02:50:30;;;;;;;;;;;14.00;99.90;;;;;;5074631;28;20326;-80
2022/04/28 02:52:56;;;;;;;;;;;13.90;99.90;;;;;;5074444;28;19904;-80
2022/04/28 02:55:21;;;;;;;;;;;14.00;99.90;;;;;;5074596;28;19905;-79
2022/04/28 02:57:47;;;;;;;;;;;13.90;99.90;;;;;;5074646;28;19908;-82
2022/04/28 03:00:12;;;;;;;;;;;14.00;99.90;;;;;;5074294;28;19954;-80
2022/04/28 03:02:38;;;;;;;;;;;14.00;99.90;;;;;;5074311;28;19905;-80
2022/04/28 03:05:04;;;;;;;;;;;14.10;99.90;;;;;;5074241;28;20365;-79
2022/04/28 03:12:58;;;;;;;;;;;14.00;99.90;;;;;;5074134;28;20006;-80
2022/04/28 03:15:25;;;;;;;;;;;14.10;99.90;;;;;;5074047;28;19947;-80
2022/04/28 03:17:50;;;;;;;;;;;14.00;99.90;;;;;;5074091;28;19912;-81
2022/04/28 03:20:16;;;;;;;;;;;14.00;99.90;;;;;;5074009;28;19987;-80
2022/04/28 03:22:43;;;;;;;;;;;13.70;99.90;;;;;;5073984;28;19965;-78
2022/04/28 03:25:09;;;;;;;;;;;13.60;99.90;;;;;;5073972;28;19904;-82
2022/04/28 03:27:35;;;;;;;;;;;13.60;99.90;;;;;;5073918;28;19904;-81
2022/04/28 03:30:01;;;;;;;;;;;13.80;99.90;;;;;;5073922;28;19911;-79
2022/04/28 03:32:26;;;;;;;;;;;13.80;99.90;;;;;;5073833;28;19904;-81
2022/04/28 03:34:53;;;;;;;;;;;13.90;99.90;;;;;;5073781;28;19995;-78
2022/04/28 03:37:19;;;;;;;;;;;13.90;99.90;;;;;;5055559;28;19916;-80
2022/04/28 03:39:44;;;;;;;;;;;13.90;99.90;;;;;;5073779;28;19954;-79
2022/04/28 03:42:10;;;;;;;;;;;13.80;99.90;;;;;;5073139;28;19911;-80
2022/04/28 03:44:35;;;;;;;;;;;13.80;99.90;;;;;;5073865;28;19904;-80
2022/04/28 03:47:02;;;;;;;;;;;13.80;99.90;;;;;;5073796;28;19905;-79
2022/04/28 03:49:28;;;;;;;;;;;13.90;99.90;;;;;;5073658;28;19911;-82
2022/04/28 03:51:54;;;;;;;;;;;13.70;99.90;;;;;;5073833;28;20284;-80
2022/04/28 03:54:19;;;;;;;;;;;13.70;99.90;;;;;;5073770;28;20287;-81
2022/04/28 03:56:45;;;;;;;;;;;13.70;99.90;;;;;;5073732;28;19908;-79
2022/04/28 03:59:11;;;;;;;;;;;13.80;99.90;;;;;;5073888;28;19904;-81
2022/04/28 04:01:36;;;;;;;;;;;13.70;99.90;;;;;;5073592;28;19911;-81
2022/04/28 04:04:02;;;;;;;;;;;13.80;99.90;;;;;;5073950;28;19915;-80
2022/04/28 04:06:28;;;;;;;;;;;13.80;99.90;;;;;;5073497;28;19971;-80
2022/04/28 04:08:53;;;;;;;;;;;13.80;99.90;;;;;;5073489;28;19904;-80
2022/04/28 04:11:19;;;;;;;;;;;13.90;99.90;;;;;;5073418;28;20416;-80
2022/04/28 04:13:46;;;;;;;;;;;13.80;99.90;;;;;;5073434;28;20338;-79
2022/04/28 04:16:12;;;;;;;;;;;13.60;99.90;;;;;;5073335;28;19911;-78
2022/04/28 04:18:38;;;;;;;;;;;13.60;99.90;;;;;;5073416;28;20357;-79
2022/04/28 04:21:04;;;;;;;;;;;13.70;99.90;;;;;;5073318;28;20008;-78
2022/04/28 04:23:31;;;;;;;;;;;13.70;99.90;;;;;;5073359;28;19908;-81
2022/04/28 04:25:57;;;;;;;;;;;13.70;99.90;;;;;;5073286;28;19954;-80
2022/04/28 04:28:23;;;;;;;;;;;13.70;99.90;;;;;;5073579;28;20376;-80
2022/04/28 04:33:32;;;;;;;;;;;13.70;99.90;;;;;;5072960;28;19943;-81
2022/04/28 04:35:58;;;;;;;;;;;13.80;99.90;;;;;;5073579;28;20329;-78
2022/04/28 04:38:23;;;;;;;;;;;13.80;99.90;;;;;;5072684;28;20006;-79
2022/04/28 04:40:49;;;;;;;;;;;13.80;99.90;;;;;;5073198;28;19904;-79
2022/04/28 04:43:15;;;;;;;;;;;13.70;99.90;;;;;;5073094;28;19904;-79
2022/04/28 04:45:43;;;;;;;;;;;13.50;99.90;;;;;;5073327;28;19905;-81
2022/04/28 04:48:10;;;;;;;;;;;13.50;99.90;;;;;;5073082;28;19904;-82
2022/04/28 04:50:36;;;;;;;;;;;13.60;99.90;;;;;;5055077;28;20381;-79
2022/04/28 04:53:04;;;;;;;;;;;13.60;99.90;;;;;;5073912;28;19908;-79
2022/04/28 04:55:30;;;;;;;;;;;13.60;99.90;;;;;;5076731;28;20391;-80
2022/04/28 04:57:56;;;;;;;;;;;13.60;99.90;;;;;;5077058;28;20058;-80
2022/04/28 05:00:21;;;;;;;;;;;13.50;99.90;;;;;;5076668;28;19950;-82
2022/04/28 05:02:47;;;;;;;;;;;13.60;99.90;;;;;;5076593;28;20280;-79
2022/04/28 05:05:13;;;;;;;;;;;13.60;99.90;;;;;;5076541;28;19912;-82
2022/04/28 05:07:38;;;;;;;;;;;13.50;99.90;;;;;;5076713;28;20340;-80
2022/04/28 05:10:04;;;;;;;;;;;13.60;99.90;;;;;;5058408;28;19912;-80
2022/04/28 05:12:30;;;;;;;;;;;13.50;99.90;;;;;;5076394;28;20013;-81
2022/04/28 05:14:56;;;;;;;;;;;13.40;99.90;;;;;;5076597;28;19904;-79
2022/04/28 05:17:22;;;;;;;;;;;13.50;99.90;;;;;;5076403;28;19958;-81
2022/04/28 05:19:47;;;;;;;;;;;13.40;99.90;;;;;;5076334;28;19910;-79
2022/04/28 05:22:14;;;;;;;;;;;13.30;99.90;;;;;;5076260;28;19908;-82
2022/04/28 05:24:39;;;;;;;;;;;13.30;99.90;;;;;;5076151;28;20323;-80
2022/04/28 05:27:05;;;;;;;;;;;13.30;99.90;;;;;;5076281;28;19953;-80
2022/04/28 05:29:30;;;;;;;;;;;13.50;99.90;;;;;;5076238;28;20376;-82
2022/04/28 05:31:56;;;;;;;;;;;13.70;99.90;;;;;;5076082;28;20046;-79
2022/04/28 05:34:22;;;;;;;;;;;13.70;99.90;;;;;;5076000;28;20380;-80
2022/04/28 05:36:48;;;;;;;;;;;13.80;99.90;;;;;;5075963;28;19995;-78
2022/04/28 05:39:14;;;;;;;;;;;13.80;99.90;;;;;;5076246;28;20413;-80
2022/04/28 05:41:40;;;;;;;;;;;13.90;99.90;;;;;;5075865;28;19905;-79
2022/04/28 05:46:51;;;;;;;;;;;13.90;99.90;;;;;;5075703;28;19978;-78
2022/04/28 05:49:17;;;;;;;;;;;13.90;99.90;;;;;;5075880;28;19904;-79
2022/04/28 05:51:42;;;;;;;;;;;13.80;99.90;;;;;;5075593;28;19969;-80
2022/04/28 05:54:08;;;;;;;;;;;13.70;99.90;;;;;;5075731;28;19928;-81
2022/04/28 05:56:33;;;;;;;;;;;13.80;99.90;;;;;;5075578;28;19994;-82
2022/04/28 05:58:59;;;;;;;;;;;13.80;99.90;;;;;;5075475;28;19913;-80
2022/04/28 06:01:25;;;;;;;;;;;13.90;99.90;;;;;;5057433;28;19905;-81
2022/04/28 06:03:50;;;;;;;;;;;14.00;99.90;;;;;;5057447;28;19999;-80
2022/04/28 06:06:16;;;;;;;;;;;13.90;99.90;;;;;;5075264;28;19904;-82
2022/04/28 06:08:41;;;;;;;;;;;13.90;99.90;;;;;;5075369;28;19904;-79
2022/04/28 06:11:07;;;;;;;;;;;14.10;99.90;;;;;;5075284;28;19957;-82
2022/04/28 06:13:32;;;;;;;;;;;14.10;99.90;;;;;;5075315;28;19916;-81
2022/04/28 06:15:58;;;;;;;;;;;14.20;99.90;;;;;;5075192;28;19904;-81
2022/04/28 06:18:24;;;;;;;;;;;14.20;99.90;;;;;;5075539;28;19908;-80
2022/04/28 06:20:50;;;;;;;;;;;14.20;99.90;;;;;;5075433;28;20433;-78
2022/04/28 06:23:15;;;;;;;;;;;14.30;99.90;;;;;;5075070;28;19910;-79
2022/04/28 06:25:41;;;;;;;;;;;14.20;99.90;;;;;;5075209;28;19908;-80
2022/04/28 06:28:07;;;;;;;;;;;14.30;99.90;;;;;;5075005;28;19999;-82
2022/04/28 06:30:32;;;;;;;;;;;14.20;99.90;;;;;;5074950;28;20345;-80
2022/04/28 06:32:58;;;;;;;;;;;14.30;99.90;;;;;;5074927;28;20384;-80
2022/04/28 06:35:24;;;;;;;;;;;14.30;99.90;;;;;;5074847;28;20352;-79
2022/04/28 06:37:49;;;;;;;;;;;14.40;99.90;;;;;;5074697;28;19923;-80
2022/04/28 06:40:15;;;;;;;;;;;14.60;99.90;;;;;;5056730;28;19912;-81
2022/04/28 06:42:44;;;;;;;;;;;14.60;99.90;;;;;;5075318;28;19904;-80
2022/04/28 06:45:10;;;;;;;;;;;14.60;99.90;;;;;;5074685;28;19943;-80
2022/04/28 06:47:36;;;;;;;;;;;14.60;99.90;;;;;;5074593;28;19904;-79
2022/04/28 06:50:01;;;;;;;;;;;14.60;99.90;;;;;;5074820;28;20379;-80
2022/04/28 06:52:27;;;;;;;;;;;14.70;99.90;;;;;;5074588;28;20357;-79
2022/04/28 06:54:52;;;;;;;;;;;14.80;99.90;;;;;;5074918;28;19908;-80
2022/04/28 06:57:19;;;;;;;;;;;15.00;99.90;;;;;;5074278;28;20386;-81
2022/04/28 06:59:44;;;;;;;;;;;15.20;99.90;;;;;;5074552;28;20282;-79
2022/04/28 07:02:10;;;;;;;;;;;15.30;99.90;;;;;;5074540;28;19905;-81
2022/04/28 07:04:36;;;;;;;;;;;15.50;99.90;;;;;;5074690;28;19905;-79
2022/04/28 07:07:01;;;;;;;;;;;15.40;99.90;;;;;;5074280;28;19911;-80
2022/04/28 07:09:27;;;;;;;;;;;15.50;99.90;;;;;;5056286;28;20319;-81
2022/04/28 07:11:52;;;;;;;;;;;15.70;99.90;;;;;;5074238;28;19916;-79
2022/04/28 07:14:18;;;;;;;;;;;15.70;99.90;;;;;;5056148;28;19943;-81
2022/04/28 07:16:44;;;;;;;;;;;15.80;99.90;;;;;;5073148;28;19909;-80
2022/04/28 07:19:09;;;;;;;;;;;15.70;99.90;;;;;;5074193;28;19905;-82
2022/04/28 07:21:35;;;;;;;;;;;15.70;99.90;;;;;;5074096;28;19955;-81
2022/04/28 07:24:01;;;;;;;;;;;15.70;99.90;;;;;;5056032;28;19904;-77
2022/04/28 07:26:28;;;;;;;;;;;15.80;99.90;;;;;;5074170;28;19905;-79
2022/04/28 07:28:54;;;;;;;;;;;16.00;99.90;;;;;;5056004;28;19904;-79
2022/04/28 07:31:19;;;;;;;;;;;16.10;99.90;;;;;;5073973;28;20253;-79
2022/04/28 07:33:45;;;;;;;;;;;16.10;99.90;;;;;;5073905;28;19943;-82
2022/04/28 07:36:12;;;;;;;;;;;16.30;99.90;;;;;;5073659;28;19947;-80
2022/04/28 07:38:38;;;;;;;;;;;16.50;99.90;;;;;;5074227;28;19901;-80
2022/04/28 07:41:04;;;;;;;;;;;16.70;97.80;;;;;;5074015;28;19905;-80
2022/04/28 07:43:30;;;;;;;;;;;16.70;97.80;;;;;;5073716;28;20406;-80
2022/04/28 07:45:55;;;;;;;;;;;16.70;95.30;;;;;;5073720;28;19905;-80
2022/04/28 07:48:21;;;;;;;;;;;16.70;94.40;;;;;;5073616;28;19974;-79
2022/04/28 07:50:47;;;;;;;;;;;16.50;94.20;;;;;;5073666;28;19911;-80
2022/04/28 07:53:13;;;;;;;;;;;16.50;94.50;;;;;;5073585;28;20287;-80
2022/04/28 07:55:38;;;;;;;;;;;16.20;93.80;;;;;;5073656;28;20395;-82
2022/04/28 07:58:04;;;;;;;;;;;16.60;95.00;;;;;;5073504;28;19995;-80
2022/04/28 08:00:29;;;;;;;;;;;16.80;94.10;;;;;;5073776;28;19908;-82
2022/04/28 08:02:55;;;;;;;;;;;17.00;94.40;;;;;;5073919;28;19969;-79
2022/04/28 08:05:21;;;;;;;;;;;17.40;92.80;;;;;;5073627;28;19947;-80
2022/04/28 08:07:46;;;;;;;;;;;17.50;92.30;;;;;;5073619;28;19983;-79
2022/04/28 08:10:12;;;;;;;;;;;17.50;92.30;;;;;;5073414;28;19904;-80
2022/04/28 08:12:38;;;;;;;;;;;17.50;91.20;;;;;;5073478;28;19905;-80
2022/04/28 08:15:04;;;;;;;;;;;17.60;90.70;;;;;;5073556;28;19904;-79
2022/04/28 08:17:29;;;;;;;;;;;17.40;90.10;;;;;;5073377;28;19908;-80
2022/04/28 08:19:55;;;;;;;;;;;17.50;90.80;;;;;;5073389;28;19920;-79
2022/04/28 08:22:21;;;;;;;;;;;17.80;90.00;;;;;;5073784;28;19912;-80
2022/04/28 08:24:46;;;;;;;;;;;18.10;90.00;;;;;;5055340;28;19991;-81
2022/04/28 08:27:12;;;;;;;;;;;18.50;87.90;;;;;;5055250;28;19912;-81
2022/04/28 08:29:37;;;;;;;;;;;19.10;86.30;;;;;;5076792;28;19908;-80
2022/04/28 08:32:04;;;;;;;;;;;19.40;84.90;;;;;;5077275;28;20376;-81
2022/04/28 08:34:30;;;;;;;;;;;19.50;80.20;;;;;;5077109;28;19948;-79
2022/04/28 08:36:55;;;;;;;;;;;20.00;78.40;;;;;;5076969;28;19966;-80
2022/04/28 08:39:21;;;;;;;;;;;19.90;77.70;;;;;;5076999;28;20008;-82
2022/04/28 08:41:47;;;;;;;;;;;19.40;76.10;;;;;;5077051;28;19904;-80
2022/04/28 08:44:26;;;;;;;;;;;19.60;77.50;;;;;;5077366;28;20399;-81
2022/04/28 08:46:53;;;;;;;;;;;19.80;77.90;;;;;;5077035;28;19912;-80
2022/04/28 08:49:18;;;;;;;;;;;19.70;77.30;;;;;;5076884;28;19904;-81
2022/04/28 08:51:44;;;;;;;;;;;19.70;77.10;;;;;;5076846;28;19950;-82
2022/04/28 08:54:10;;;;;;;;;;;20.00;76.10;;;;;;5076946;28;19908;-79
2022/04/28 08:56:36;;;;;;;;;;;19.80;75.50;;;;;;5076646;28;19916;-80
2022/04/28 08:59:02;;;;;;;;;;;19.80;75.30;;;;;;5058663;28;19904;-82
2022/04/28 09:01:27;;;;;;;;;;;20.10;76.90;;;;;;5076653;28;20357;-79
2022/04/28 09:03:54;;;;;;;;;;;20.80;74.20;;;;;;5076932;28;20041;-82
2022/04/28 09:06:20;;;;;;;;;;;21.20;72.50;;;;;;5076707;28;19905;-79
2022/04/28 09:08:46;;;;;;;;;;;20.90;71.40;;;;;;5058536;28;19911;-81
2022/04/28 09:11:21;;;;;;;;;;;20.90;72.40;;;;;;5076463;28;20384;-80
2022/04/28 09:14:09;;;;;;;;;;;21.20;71.20;;;;;;5076415;28;19905;-75
2022/04/28 09:16:42;;;;;;;;;;;21.30;69.60;;;;;;5076715;28;19909;-80
2022/04/28 09:19:09;;;;;;;;;;;21.60;68.60;;;;;;5076560;28;19935;-79
2022/04/28 09:21:35;;;;;;;;;;;21.20;68.80;;;;;;5076306;28;19905;-79
2022/04/28 09:24:02;;;;;;;;;;;21.20;68.80;;;;;;5076478;28;20288;-77
2022/04/28 09:26:28;;;;;;;;;;;21.20;68.70;;;;;;5076210;28;19949;-81
2022/04/28 09:28:54;;;;;;;;;;;21.30;68.50;;;;;;5076489;28;19908;-80
2022/04/28 09:31:20;;;;;;;;;;;21.50;66.90;;;;;;5076123;28;19904;-77
2022/04/28 09:33:47;;;;;;;;;;;21.60;68.10;;;;;;5076148;28;19943;-80
2022/04/28 09:36:13;;;;;;;;;;;22.00;66.60;;;;;;5075823;28;19957;-79
2022/04/28 09:38:39;;;;;;;;;;;22.80;66.30;;;;;;5076185;28;20303;-77
2022/04/28 09:43:52;;;;;;;;;;;23.10;61.80;;;;;;5075977;28;19911;-78
2022/04/28 09:46:25;;;;;;;;;;;23.30;61.20;;;;;;5075846;28;19954;-76
2022/04/28 09:48:54;;;;;;;;;;;23.40;61.20;;;;;;5075835;28;19909;-79
2022/04/28 09:51:21;;;;;;;;;;;23.50;60.40;;;;;;5075999;28;19904;-77
2022/04/28 09:53:48;;;;;;;;;;;22.90;62.00;;;;;;5075728;28;19904;-80
2022/04/28 09:56:15;;;;;;;;;;;23.10;62.50;;;;;;5057652;28;19908;-80
2022/04/28 09:58:41;;;;;;;;;;;23.50;61.60;;;;;;5075546;28;19908;-80
2022/04/28 10:01:07;;;;;;;;;;;23.20;61.70;;;;;;5057575;28;19977;-77
2022/04/28 10:03:33;;;;;;;;;;;23.20;61.90;;;;;;5075663;28;19909;-80
2022/04/28 10:06:00;;;;;;;;;;;23.00;61.80;;;;;;5057456;28;19969;-79
2022/04/28 10:08:25;;;;;;;;;;;22.40;61.30;;;;;;5075936;28;20463;-81
2022/04/28 10:10:57;;;;;;;;;;;22.40;61.20;;;;;;5075319;28;19942;-79
2022/04/28 10:13:24;;;;;;;;;;;22.60;61.20;;;;;;5075414;28;19908;-78
2022/04/28 10:15:52;;;;;;;;;;;23.80;61.40;;;;;;5075344;28;20265;-78
2022/04/28 10:18:19;;;;;;;;;;;25.20;58.70;;;;;;5075124;28;20376;-78
2022/04/28 10:20:45;;;;;;;;;;;25.40;56.70;;;;;;5075538;28;19905;-80
2022/04/28 10:23:16;;;;;;;;;;;26.10;55.80;;;;;;5075133;28;19958;-76
2022/04/28 10:34:11;;;;;;;;;;;25.50;54.40;;;;;;5074688;28;19911;-77
2022/04/28 10:36:54;;;;;;;;;;;25.40;55.50;;;;;;5074581;28;19913;-78
2022/04/28 10:39:38;;;;;;;;;;;25.40;55.00;;;;;;5075115;28;19908;-79
2022/04/28 10:42:22;;;;;;;;;;;25.20;54.30;;;;;;5074952;28;19905;-78
2022/04/28 10:44:54;;;;;;;;;;;25.30;55.40;;;;;;5074651;28;19904;-79
2022/04/28 10:47:29;;;;;;;;;;;25.70;55.40;;;;;;5074965;28;19930;-77
2022/04/28 10:49:54;;;;;;;;;;;25.60;54.50;;;;;;5074859;28;19904;-77
2022/04/28 10:52:21;;;;;;;;;;;25.90;53.80;;;;;;5074392;28;19904;-80
2022/04/28 10:54:50;;;;;;;;;;;26.50;53.40;;;;;;5074480;28;19905;-78
2022/04/28 10:57:16;;;;;;;;;;;27.70;51.50;;;;;;5074365;28;19912;-79
2022/04/28 10:59:47;;;;;;;;;;;26.60;50.70;;;;;;5056495;28;20429;-79
2022/04/28 11:02:16;;;;;;;;;;;26.00;52.90;;;;;;5074468;28;20002;-77
2022/04/28 11:04:42;;;;;;;;;;;25.70;53.30;;;;;;5074271;28;19904;-78
2022/04/28 11:07:09;;;;;;;;;;;25.20;53.40;;;;;;5074439;28;19966;-77
2022/04/28 11:09:37;;;;;;;;;;;24.40;54.60;;;;;;5074338;28;19912;-79
2022/04/28 11:12:18;;;;;;;;;;;24.20;56.00;;;;;;5056200;28;19909;-79
2022/04/28 11:14:47;;;;;;;;;;;24.60;55.90;;;;;;5074167;28;19904;-78
2022/04/28 11:17:14;;;;;;;;;;;25.50;55.00;;;;;;5074064;28;19912;-79
2022/04/28 11:19:40;;;;;;;;;;;25.90;52.30;;;;;;5074200;28;19912;-77
2022/04/28 11:22:05;;;;;;;;;;;25.60;52.50;;;;;;5074064;28;19904;-78
2022/04/28 11:24:32;;;;;;;;;;;25.80;53.00;;;;;;5074019;28;19911;-79
2022/04/28 11:27:00;;;;;;;;;;;26.20;53.20;;;;;;5073987;28;19904;-77
2022/04/28 11:29:28;;;;;;;;;;;26.40;52.20;;;;;;5073947;28;20392;-78
2022/04/28 11:31:53;;;;;;;;;;;27.00;51.80;;;;;;5073905;28;20287;-76
2022/04/28 11:34:19;;;;;;;;;;;27.20;51.80;;;;;;5073848;28;19905;-78
2022/04/28 11:36:45;;;;;;;;;;;29.10;50.00;;;;;;5073685;28;19916;-78
2022/04/28 11:39:11;;;;;;;;;;;31.00;47.30;;;;;;5073838;28;19904;-79
2022/04/28 11:41:41;;;;;;;;;;;32.20;45.30;;;;;;5073732;28;19987;-78
2022/04/28 11:44:11;;;;;;;;;;;32.20;44.50;;;;;;5073702;28;19905;-78
2022/04/28 11:46:49;;;;;;;;;;;32.20;42.30;;;;;;5073687;28;19904;-77
2022/04/28 11:49:15;;;;;;;;;;;31.30;44.00;;;;;;5073836;28;20372;-79
2022/04/28 11:51:41;;;;;;;;;;;30.60;44.90;;;;;;5073611;28;19904;-78
2022/04/28 11:54:23;;;;;;;;;;;30.60;44.50;;;;;;5073539;28;20380;-79
2022/04/28 11:56:49;;;;;;;;;;;29.60;45.00;;;;;;5073506;28;19908;-78
2022/04/28 11:59:15;;;;;;;;;;;30.40;45.80;;;;;;5073693;28;19911;-79
2022/04/28 12:01:42;;;;;;;;;;;30.20;45.60;;;;;;5073639;28;19911;-77
2022/04/28 12:04:08;;;;;;;;;;;30.40;45.40;;;;;;5072968;28;19905;-78
2022/04/28 12:06:33;;;;;;;;;;;29.60;43.70;;;;;;5055583;28;19904;-78
2022/04/28 12:14:21;;;;;;;;;;;28.80;45.40;;;;;;5073422;28;19904;-79
2022/04/28 12:14:31;;;;;;;;;;;28.80;46.00;;;;;;5073447;28;20399;-79
2022/04/28 12:19:49;;;;;;;;;;;29.70;45.20;;;;;;5073194;28;19959;-77
2022/04/28 12:22:23;;;;;;;;;;;30.90;43.30;;;;;;5073354;28;19927;-80
2022/04/28 12:24:48;;;;;;;;;;;33.10;42.20;;;;;;5073760;28;19977;-80
2022/04/28 12:27:15;;;;;;;;;;;33.20;40.30;;;;;;5073414;28;19905;-79
2022/04/28 12:29:54;;;;;;;;;;;30.30;43.20;;;;;;5073344;28;19908;-80
2022/04/28 12:32:20;;;;;;;;;;;29.60;44.60;;;;;;5073504;28;19905;-79
2022/04/28 12:34:56;;;;;;;;;;;28.70;44.80;;;;;;5055170;28;19905;-77
2022/04/28 12:37:25;;;;;;;;;;;28.80;46.00;;;;;;5073087;28;19916;-79
2022/04/28 12:39:55;;;;;;;;;;;28.40;45.70;;;;;;5073267;28;19909;-79
2022/04/28 12:42:20;;;;;;;;;;;28.10;46.90;;;;;;5073156;28;19905;-78
2022/04/28 12:44:46;;;;;;;;;;;28.30;44.90;;;;;;5073424;28;19904;-77
2022/04/28 12:47:12;;;;;;;;;;;28.70;45.10;;;;;;5073275;28;19930;-78
2022/04/28 12:49:45;;;;;;;;;;;29.20;45.30;;;;;;5073128;28;19904;-80
2022/04/28 12:52:10;;;;;;;;;;;33.50;43.50;;;;;;5073017;28;19905;-76
2022/04/28 12:54:36;;;;;;;;;;;33.90;41.50;;;;;;5073491;28;19911;-77
2022/04/28 12:57:05;;;;;;;;;;;33.70;41.70;;;;;;5073018;28;19912;-79
2022/04/28 12:59:31;;;;;;;;;;;33.40;42.20;;;;;;5073159;28;19911;-79
2022/04/28 13:01:58;;;;;;;;;;;31.90;42.30;;;;;;5072986;28;19991;-78
2022/04/28 13:04:24;;;;;;;;;;;31.80;42.90;;;;;;5073211;28;19908;-78
2022/04/28 13:06:50;;;;;;;;;;;32.10;43.10;;;;;;5072986;28;19912;-77
2022/04/28 13:09:17;;;;;;;;;;;34.00;42.70;;;;;;5073196;28;19905;-78
2022/04/28 13:11:47;;;;;;;;;;;35.20;40.60;;;;;;5072742;28;20218;-79
2022/04/28 13:14:16;;;;;;;;;;;36.50;38.40;;;;;;5072892;28;19904;-79
2022/04/28 13:16:42;;;;;;;;;;;36.80;38.90;;;;;;5076411;28;19995;-79
2022/04/28 13:19:08;;;;;;;;;;;38.50;37.00;;;;;;5076378;28;19995;-80
2022/04/28 13:21:37;;;;;;;;;;;36.20;37.30;;;;;;5076418;28;20348;-79
2022/04/28 13:24:02;;;;;;;;;;;34.70;38.60;;;;;;5076415;28;19939;-78
2022/04/28 13:26:29;;;;;;;;;;;35.80;38.40;;;;;;5076221;28;19947;-80
2022/04/28 13:28:55;;;;;;;;;;;37.90;36.70;;;;;;5057929;28;19908;-79
2022/04/28 13:31:21;;;;;;;;;;;35.40;36.70;;;;;;5076156;28;20361;-78
2022/04/28 13:33:47;;;;;;;;;;;32.90;37.80;;;;;;5076198;28;19912;-80
2022/04/28 13:36:13;;;;;;;;;;;33.10;40.10;;;;;;5076354;28;19912;-76
2022/04/28 13:38:39;;;;;;;;;;;33.00;39.90;;;;;;5076075;28;19953;-76
2022/04/28 13:41:06;;;;;;;;;;;32.60;39.80;;;;;;5076210;28;19939;-80
2022/04/28 13:43:31;;;;;;;;;;;32.00;40.50;;;;;;5075963;28;19977;-78
2022/04/28 13:46:01;;;;;;;;;;;32.30;39.60;;;;;;5076097;28;20399;-79
2022/04/28 13:48:26;;;;;;;;;;;32.80;40.70;;;;;;5075793;28;20457;-79
2022/04/28 13:50:52;;;;;;;;;;;32.70;40.20;;;;;;5075823;28;19905;-78
2022/04/28 13:53:18;;;;;;;;;;;31.40;41.00;;;;;;5075966;28;19970;-77
2022/04/28 13:55:45;;;;;;;;;;;29.80;41.50;;;;;;5075750;28;19944;-77
2022/04/28 13:58:10;;;;;;;;;;;29.40;42.90;;;;;;5075602;28;19917;-77
2022/04/28 14:00:36;;;;;;;;;;;31.10;42.50;;;;;;5057685;28;19944;-78
2022/04/28 14:03:02;;;;;;;;;;;31.80;41.10;;;;;;5075576;28;19908;-79
2022/04/28 14:05:27;;;;;;;;;;;32.30;41.30;;;;;;5075540;28;19904;-78
2022/04/28 14:07:53;;;;;;;;;;;32.40;40.20;;;;;;5075459;28;19908;-77
2022/04/28 14:10:19;;;;;;;;;;;31.30;39.40;;;;;;5075556;28;20276;-79
2022/04/28 14:12:44;;;;;;;;;;;30.50;41.30;;;;;;5075528;28;20327;-77
2022/04/28 14:15:10;;;;;;;;;;;30.30;41.50;;;;;;5075071;28;19911;-79
2022/04/28 14:17:36;;;;;;;;;;;29.20;42.90;;;;;;5075286;28;19915;-79
2022/04/28 14:20:03;;;;;;;;;;;27.80;44.60;;;;;;5075158;28;19904;-77
2022/04/28 14:22:29;;;;;;;;;;;27.80;45.40;;;;;;5075105;28;19936;-77
2022/04/28 14:24:54;;;;;;;;;;;28.80;44.30;;;;;;5075144;28;19960;-77
2022/04/28 14:27:20;;;;;;;;;;;29.20;44.30;;;;;;5074835;28;19912;-77
2022/04/28 14:29:46;;;;;;;;;;;28.90;43.60;;;;;;5074947;28;20410;-79
2022/04/28 14:32:12;;;;;;;;;;;28.80;44.10;;;;;;5074839;28;19955;-77
2022/04/28 14:34:37;;;;;;;;;;;29.40;43.30;;;;;;5075305;28;19905;-77
2022/04/28 14:37:06;;;;;;;;;;;28.80;44.00;;;;;;5074540;28;19927;-78
2022/04/28 14:39:34;;;;;;;;;;;29.30;44.10;;;;;;5074939;28;20272;-78
2022/04/28 14:42:01;;;;;;;;;;;29.00;44.00;;;;;;5074807;28;20262;-78
2022/04/28 14:44:27;;;;;;;;;;;30.20;43.70;;;;;;5074722;28;19954;-78
2022/04/28 14:46:52;;;;;;;;;;;30.10;43.40;;;;;;5074680;28;20422;-76
2022/04/28 14:52:21;;;;;;;;;;;30.00;43.20;;;;;;5074756;28;19911;-79